createdAt,value
2016-10-14T00:00:15.724Z,0
2016-10-14T00:01:29.067Z,0
2016-10-14T00:02:42.973Z,0
2016-10-14T00:03:55.580Z,0
2016-10-14T00:05:09.337Z,0
2016-10-14T00:06:22.928Z,0
2016-10-14T00:07:36.134Z,0
2016-10-14T00:08:49.319Z,0
2016-10-14T00:10:02.457Z,0
2016-10-14T00:11:16.137Z,0
2016-10-14T00:12:29.728Z,0
2016-10-14T00:13:42.923Z,0
2016-10-14T00:14:56.584Z,0
2016-10-14T00:16:09.906Z,0
2016-10-14T00:17:23.869Z,0
2016-10-14T00:18:37.611Z,0
2016-10-14T00:19:50.797Z,0
2016-10-14T00:21:04.584Z,0
2016-10-14T00:22:17.664Z,0
2016-10-14T00:23:30.707Z,0
2016-10-14T00:24:44.363Z,0
2016-10-14T00:25:57.997Z,0
2016-10-14T00:27:11.154Z,0
2016-10-14T00:28:24.806Z,0
2016-10-14T00:29:38.465Z,0
2016-10-14T00:30:52.156Z,0
2016-10-14T00:32:05.299Z,0
2016-10-14T00:33:18.513Z,0
2016-10-14T00:34:32.386Z,0
2016-10-14T00:35:45.493Z,0
2016-10-14T00:36:58.610Z,0
2016-10-14T00:38:11.222Z,0
2016-10-14T00:39:23.876Z,0
2016-10-14T00:40:37.568Z,0
2016-10-14T00:41:51.400Z,0
2016-10-14T00:43:05.082Z,0
2016-10-14T00:44:18.682Z,0
2016-10-14T00:45:31.752Z,0
2016-10-14T00:46:45.419Z,0
2016-10-14T00:47:59.163Z,0
2016-10-14T00:49:12.835Z,0
2016-10-14T00:50:26.494Z,0
2016-10-14T00:51:40.212Z,0
2016-10-14T00:52:53.988Z,0
2016-10-14T00:54:07.333Z,0
2016-10-14T00:55:20.478Z,0
2016-10-14T00:56:33.615Z,0
2016-10-14T00:57:47.395Z,0
2016-10-14T00:59:01.194Z,0
2016-10-14T01:00:14.270Z,0
2016-10-14T01:01:27.463Z,0
2016-10-14T01:02:40.702Z,0
2016-10-14T01:03:54.233Z,0
2016-10-14T01:05:07.869Z,0
2016-10-14T01:06:21.483Z,0
2016-10-14T01:07:35.299Z,0
2016-10-14T01:08:49.187Z,0
2016-10-14T01:10:02.852Z,0
2016-10-14T01:11:16.518Z,0
2016-10-14T01:12:30.250Z,0
2016-10-14T01:13:43.949Z,0
2016-10-14T01:14:57.544Z,0
2016-10-14T01:16:11.529Z,0
2016-10-14T01:17:25.364Z,0
2016-10-14T01:18:39.013Z,0
2016-10-14T01:19:52.204Z,0
2016-10-14T01:21:05.881Z,0
2016-10-14T01:22:17.967Z,0
2016-10-14T01:23:31.189Z,0
2016-10-14T01:24:45.129Z,0
2016-10-14T01:25:58.909Z,0
2016-10-14T01:27:12.749Z,0
2016-10-14T01:28:25.932Z,0
2016-10-14T01:29:39.642Z,0
2016-10-14T01:30:53.423Z,0
2016-10-14T01:32:07.080Z,0
2016-10-14T01:33:19.785Z,0
2016-10-14T01:34:32.912Z,0
2016-10-14T01:35:46.092Z,0
2016-10-14T01:36:59.660Z,0
2016-10-14T01:38:13.233Z,0
2016-10-14T01:39:26.878Z,0
2016-10-14T01:40:40.522Z,0
2016-10-14T01:41:53.690Z,0
2016-10-14T01:43:07.355Z,0
2016-10-14T01:44:21.088Z,0
2016-10-14T01:45:34.807Z,0
2016-10-14T01:46:48.295Z,0
2016-10-14T01:48:01.462Z,0
2016-10-14T01:49:14.520Z,0
2016-10-14T01:50:28.109Z,0
2016-10-14T01:51:41.374Z,0
2016-10-14T01:52:55.019Z,0
2016-10-14T01:54:08.685Z,0
2016-10-14T01:55:22.284Z,0
2016-10-14T01:56:35.449Z,0
2016-10-14T01:57:48.548Z,0
2016-10-14T01:59:02.140Z,0
2016-10-14T02:00:15.755Z,0
2016-10-14T02:01:29.397Z,0
2016-10-14T02:02:42.573Z,0
2016-10-14T02:03:56.291Z,0
2016-10-14T02:05:09.974Z,0
2016-10-14T02:06:23.074Z,0
2016-10-14T02:07:36.799Z,0
2016-10-14T02:08:50.454Z,0
2016-10-14T02:10:04.058Z,0
2016-10-14T02:11:17.727Z,0
2016-10-14T02:12:30.823Z,0
2016-10-14T02:13:44.422Z,0
2016-10-14T02:14:58.075Z,0
2016-10-14T02:16:11.209Z,0
2016-10-14T02:17:24.779Z,0
2016-10-14T02:18:37.860Z,0
2016-10-14T02:19:51.438Z,0
2016-10-14T02:21:04.552Z,0
2016-10-14T02:22:18.392Z,0
2016-10-14T02:23:32.099Z,0
2016-10-14T02:24:45.166Z,0
2016-10-14T02:25:58.235Z,0
2016-10-14T02:27:11.264Z,0
2016-10-14T02:28:24.866Z,0
2016-10-14T02:29:38.458Z,0
2016-10-14T02:30:52.105Z,0
2016-10-14T02:32:04.669Z,0
2016-10-14T02:33:18.281Z,0
2016-10-14T02:34:31.406Z,0
2016-10-14T02:35:44.526Z,0
2016-10-14T02:36:58.083Z,0
2016-10-14T02:38:11.697Z,0
2016-10-14T02:39:25.286Z,0
2016-10-14T02:40:38.978Z,0
2016-10-14T02:41:52.593Z,0
2016-10-14T02:43:05.093Z,0
2016-10-14T02:44:18.765Z,0
2016-10-14T02:45:32.430Z,0
2016-10-14T02:46:46.001Z,0
2016-10-14T02:47:59.630Z,0
2016-10-14T02:49:13.206Z,0
2016-10-14T02:50:26.318Z,0
2016-10-14T02:51:39.542Z,0
2016-10-14T02:52:51.014Z,0
2016-10-14T02:54:04.665Z,0
2016-10-14T02:55:17.764Z,0
2016-10-14T02:56:31.371Z,0
2016-10-14T02:57:45.111Z,0
2016-10-14T02:58:58.188Z,0
2016-10-14T03:00:11.856Z,0
2016-10-14T03:01:25.071Z,0
2016-10-14T03:02:38.693Z,0
2016-10-14T03:03:51.792Z,0
2016-10-14T03:05:05.422Z,0
2016-10-14T03:06:18.403Z,0
2016-10-14T03:07:32.012Z,0
2016-10-14T03:08:45.600Z,0
2016-10-14T03:09:59.241Z,0
2016-10-14T03:11:12.330Z,0
2016-10-14T03:12:25.957Z,0
2016-10-14T03:13:39.006Z,0
2016-10-14T03:14:52.579Z,0
2016-10-14T03:16:05.138Z,0
2016-10-14T03:17:18.693Z,0
2016-10-14T03:18:32.311Z,0
2016-10-14T03:19:45.928Z,0
2016-10-14T03:20:59.030Z,0
2016-10-14T03:22:12.679Z,0
2016-10-14T03:23:25.477Z,0
2016-10-14T03:24:39.083Z,0
2016-10-14T03:25:52.130Z,0
2016-10-14T03:27:05.739Z,0
2016-10-14T03:28:19.296Z,0
2016-10-14T03:29:32.608Z,0
2016-10-14T03:30:45.663Z,0
2016-10-14T03:31:59.253Z,0
2016-10-14T03:33:12.911Z,0
2016-10-14T03:34:26.456Z,0
2016-10-14T03:35:40.084Z,0
2016-10-14T03:36:53.150Z,0
2016-10-14T03:38:06.745Z,0
2016-10-14T03:39:33.938Z,0
2016-10-14T03:40:47.658Z,0
2016-10-14T03:42:01.222Z,0
2016-10-14T03:43:13.767Z,0
2016-10-14T03:44:27.448Z,0
2016-10-14T03:45:41.018Z,0
2016-10-14T03:46:54.603Z,0
2016-10-14T03:48:08.209Z,0
2016-10-14T03:49:20.458Z,0
2016-10-14T03:50:32.985Z,0
2016-10-14T03:51:46.554Z,0
2016-10-14T03:52:59.581Z,0
2016-10-14T03:54:12.797Z,0
2016-10-14T03:55:25.894Z,0
2016-10-14T03:56:39.576Z,0
2016-10-14T03:57:53.381Z,0
2016-10-14T03:59:07.009Z,0
2016-10-14T04:00:20.651Z,0
2016-10-14T04:01:33.181Z,0
2016-10-14T04:02:46.795Z,0
2016-10-14T04:04:00.652Z,0
2016-10-14T04:05:13.720Z,0
2016-10-14T04:06:26.808Z,0
2016-10-14T04:07:40.430Z,0
2016-10-14T04:08:53.539Z,0
2016-10-14T04:10:07.150Z,0
2016-10-14T04:11:20.765Z,0
2016-10-14T04:12:34.388Z,0
2016-10-14T04:13:47.958Z,0
2016-10-14T04:15:01.575Z,0
2016-10-14T04:16:15.266Z,0
2016-10-14T04:17:28.917Z,0
2016-10-14T04:18:42.518Z,0
2016-10-14T04:19:55.830Z,0
2016-10-14T04:21:08.936Z,0
2016-10-14T04:22:22.678Z,0
2016-10-14T04:23:36.333Z,0
2016-10-14T04:24:49.955Z,0
2016-10-14T04:26:03.626Z,0
2016-10-14T04:27:17.230Z,0
2016-10-14T04:28:30.791Z,0
2016-10-14T04:29:44.401Z,0
2016-10-14T04:30:56.981Z,0
2016-10-14T04:32:10.648Z,0
2016-10-14T04:33:24.247Z,0
2016-10-14T04:34:36.801Z,0
2016-10-14T04:35:49.929Z,0
2016-10-14T04:37:03.515Z,0
2016-10-14T04:38:16.641Z,0
2016-10-14T04:39:30.437Z,0
2016-10-14T04:40:44.046Z,0
2016-10-14T04:41:57.145Z,0
2016-10-14T04:43:10.800Z,0
2016-10-14T04:44:24.529Z,0
2016-10-14T04:45:38.128Z,0
2016-10-14T04:46:51.777Z,0
2016-10-14T04:48:05.369Z,0
2016-10-14T04:49:18.980Z,0
2016-10-14T04:50:32.035Z,0
2016-10-14T04:51:45.625Z,0
2016-10-14T04:52:58.697Z,0
2016-10-14T04:54:12.371Z,0
2016-10-14T04:55:25.375Z,0
2016-10-14T04:56:39.008Z,0
2016-10-14T04:57:52.144Z,0
2016-10-14T04:59:05.910Z,0
2016-10-14T05:00:19.506Z,0
2016-10-14T05:01:33.110Z,0
2016-10-14T05:02:46.171Z,0
2016-10-14T05:03:59.777Z,0
2016-10-14T05:05:12.796Z,0
2016-10-14T05:06:26.401Z,0
2016-10-14T05:07:40.066Z,0
2016-10-14T05:08:53.728Z,0
2016-10-14T05:10:07.317Z,0
2016-10-14T05:11:20.938Z,0
2016-10-14T05:12:34.516Z,0
2016-10-14T05:13:48.320Z,0
2016-10-14T05:15:02.004Z,0
2016-10-14T05:16:15.581Z,0
2016-10-14T05:17:29.162Z,0
2016-10-14T05:18:42.806Z,0
2016-10-14T05:19:56.392Z,0
2016-10-14T05:21:10.183Z,0
2016-10-14T05:22:23.780Z,0
2016-10-14T05:23:37.373Z,0
2016-10-14T05:24:50.979Z,0
2016-10-14T05:26:04.593Z,0
2016-10-14T05:27:18.406Z,0
2016-10-14T05:28:31.437Z,0
2016-10-14T05:29:45.216Z,0
2016-10-14T05:30:58.866Z,0
2016-10-14T05:32:12.718Z,0
2016-10-14T05:33:26.340Z,0
2016-10-14T05:34:39.899Z,0
2016-10-14T05:35:53.503Z,0
2016-10-14T05:37:07.101Z,0
2016-10-14T05:38:20.679Z,0
2016-10-14T05:39:34.304Z,0
2016-10-14T05:40:47.946Z,0
2016-10-14T05:42:01.584Z,0
2016-10-14T05:43:15.219Z,0
2016-10-14T05:44:28.849Z,0
2016-10-14T05:45:42.467Z,0
2016-10-14T05:46:56.205Z,0
2016-10-14T05:48:09.984Z,0
2016-10-14T05:49:23.578Z,0
2016-10-14T05:50:37.213Z,0
2016-10-14T05:51:50.890Z,0
2016-10-14T05:53:03.952Z,0
2016-10-14T05:54:17.059Z,0
2016-10-14T05:55:30.668Z,0
2016-10-14T05:56:43.776Z,0
2016-10-14T05:57:56.865Z,0
2016-10-14T05:59:10.270Z,0
2016-10-14T06:00:23.383Z,0
2016-10-14T06:01:36.723Z,0
2016-10-14T06:02:50.329Z,0
2016-10-14T06:04:03.917Z,0
2016-10-14T06:05:17.509Z,0
2016-10-14T06:06:30.588Z,0
2016-10-14T06:07:44.219Z,0
2016-10-14T06:08:57.831Z,0
2016-10-14T06:10:11.421Z,0
2016-10-14T06:11:25.010Z,0
2016-10-14T06:12:38.632Z,0
2016-10-14T06:13:52.286Z,0
2016-10-14T06:15:05.908Z,0
2016-10-14T06:16:19.477Z,0
2016-10-14T06:17:33.127Z,0
2016-10-14T06:18:46.760Z,0
2016-10-14T06:20:00.387Z,0
2016-10-14T06:21:13.470Z,0
2016-10-14T06:22:27.105Z,0
2016-10-14T06:23:40.712Z,0
2016-10-14T06:24:54.363Z,0
2016-10-14T06:26:07.956Z,0
2016-10-14T06:27:21.044Z,0
2016-10-14T06:28:34.696Z,0
2016-10-14T06:29:48.457Z,0
2016-10-14T06:31:02.071Z,0
2016-10-14T06:32:15.648Z,0
2016-10-14T06:33:29.325Z,0
2016-10-14T06:34:42.958Z,0
2016-10-14T06:35:56.577Z,0
2016-10-14T06:37:10.199Z,0
2016-10-14T06:38:23.876Z,0
2016-10-14T06:39:36.943Z,0
2016-10-14T06:40:50.578Z,0
2016-10-14T06:42:04.105Z,0
2016-10-14T06:43:17.678Z,0
2016-10-14T06:44:31.440Z,0
2016-10-14T06:45:45.028Z,0
2016-10-14T06:46:58.665Z,0
2016-10-14T06:48:12.284Z,0
2016-10-14T06:49:25.923Z,0
2016-10-14T06:50:39.514Z,0
2016-10-14T06:51:53.188Z,0
2016-10-14T06:53:06.791Z,0
2016-10-14T06:54:20.347Z,0
2016-10-14T06:55:34.202Z,0
2016-10-14T06:56:47.799Z,0
2016-10-14T06:58:01.431Z,0
2016-10-14T06:59:15.031Z,0
2016-10-14T07:00:28.671Z,0
2016-10-14T07:01:42.318Z,0
2016-10-14T07:02:55.349Z,0
2016-10-14T07:04:09.018Z,0
2016-10-14T07:05:22.806Z,0
2016-10-14T07:06:36.373Z,0
2016-10-14T07:07:49.985Z,0
2016-10-14T07:09:03.637Z,0
2016-10-14T07:10:17.313Z,0
2016-10-14T07:11:30.134Z,0
2016-10-14T07:12:43.705Z,0
2016-10-14T07:13:57.316Z,0
2016-10-14T07:15:10.394Z,0
2016-10-14T07:16:24.030Z,0
2016-10-14T07:17:37.607Z,0
2016-10-14T07:18:51.281Z,0
2016-10-14T07:20:04.898Z,0
2016-10-14T07:21:18.630Z,0
2016-10-14T07:22:32.222Z,0
2016-10-14T07:23:45.801Z,0
2016-10-14T07:24:59.444Z,0
2016-10-14T07:26:13.011Z,0
2016-10-14T07:27:26.610Z,0
2016-10-14T07:28:40.231Z,0
2016-10-14T07:29:53.319Z,0
2016-10-14T07:31:06.927Z,0
2016-10-14T07:32:20.499Z,0
2016-10-14T07:33:34.111Z,0
2016-10-14T07:34:47.710Z,0
2016-10-14T07:36:01.258Z,0
2016-10-14T07:37:14.834Z,0
2016-10-14T07:38:27.950Z,0
2016-10-14T07:39:41.748Z,0
2016-10-14T07:40:55.336Z,0
2016-10-14T07:42:08.982Z,0
2016-10-14T07:43:22.765Z,0
2016-10-14T07:44:36.454Z,0
2016-10-14T07:45:50.068Z,0
2016-10-14T07:47:03.718Z,0
2016-10-14T07:48:17.368Z,0
2016-10-14T07:49:31.009Z,0
2016-10-14T07:50:44.660Z,0
2016-10-14T07:51:58.305Z,0
2016-10-14T07:53:11.398Z,0
2016-10-14T07:54:24.966Z,0
2016-10-14T07:55:38.574Z,0
2016-10-14T07:56:52.145Z,0
2016-10-14T07:58:05.924Z,0
2016-10-14T07:59:19.546Z,0
2016-10-14T08:00:33.633Z,0
2016-10-14T08:01:47.195Z,0
2016-10-14T08:03:00.813Z,0
2016-10-14T08:04:14.387Z,0
2016-10-14T08:05:27.999Z,0
2016-10-14T08:06:41.575Z,0
2016-10-14T08:07:55.278Z,0
2016-10-14T08:09:08.946Z,0
2016-10-14T08:10:22.014Z,0
2016-10-14T08:11:35.659Z,0
2016-10-14T08:12:48.671Z,0
2016-10-14T08:14:02.235Z,0
2016-10-14T08:15:15.858Z,0
2016-10-14T08:16:29.432Z,0
2016-10-14T08:17:43.051Z,0
2016-10-14T08:18:56.638Z,0
2016-10-14T08:20:10.224Z,0
2016-10-14T08:21:23.861Z,0
2016-10-14T08:22:37.502Z,0
2016-10-14T08:23:51.354Z,0
2016-10-14T08:25:04.960Z,4
2016-10-14T08:26:18.577Z,0
2016-10-14T08:27:32.193Z,4
2016-10-14T08:28:45.839Z,4
2016-10-14T08:29:59.528Z,4
2016-10-14T08:31:13.133Z,8
2016-10-14T08:32:26.739Z,8
2016-10-14T08:33:39.825Z,12
2016-10-14T08:34:53.397Z,12
2016-10-14T08:36:07.015Z,8
2016-10-14T08:37:20.701Z,12
2016-10-14T08:38:34.272Z,12
2016-10-14T08:39:47.856Z,12
2016-10-14T08:41:01.422Z,12
2016-10-14T08:42:15.039Z,16
2016-10-14T08:43:28.777Z,16
2016-10-14T08:44:42.342Z,16
2016-10-14T08:45:55.965Z,16
2016-10-14T08:47:09.713Z,16
2016-10-14T08:48:23.378Z,20
2016-10-14T08:49:36.960Z,20
2016-10-14T08:50:50.074Z,24
2016-10-14T08:52:03.735Z,24
2016-10-14T08:53:16.893Z,28
2016-10-14T08:54:30.598Z,28
2016-10-14T08:55:43.116Z,28
2016-10-14T08:56:56.718Z,28
2016-10-14T08:58:10.331Z,36
2016-10-14T08:59:23.950Z,36
2016-10-14T09:00:37.555Z,40
2016-10-14T09:01:51.249Z,52
2016-10-14T09:03:04.892Z,60
2016-10-14T09:04:18.642Z,72
2016-10-14T09:05:32.226Z,84
2016-10-14T09:06:45.290Z,88
2016-10-14T09:07:58.848Z,96
2016-10-14T09:09:12.453Z,108
2016-10-14T09:10:26.049Z,128
2016-10-14T09:11:39.652Z,140
2016-10-14T09:12:53.286Z,156
2016-10-14T09:14:06.980Z,172
2016-10-14T09:15:20.790Z,196
2016-10-14T09:16:34.418Z,220
2016-10-14T09:17:48.033Z,244
2016-10-14T09:19:01.675Z,272
2016-10-14T09:20:15.524Z,292
2016-10-14T09:21:29.185Z,308
2016-10-14T09:22:42.756Z,320
2016-10-14T09:23:56.339Z,320
2016-10-14T09:25:09.993Z,328
2016-10-14T09:26:23.112Z,344
2016-10-14T09:27:36.683Z,360
2016-10-14T09:28:50.335Z,384
2016-10-14T09:30:03.979Z,416
2016-10-14T09:31:17.597Z,448
2016-10-14T09:32:31.260Z,460
2016-10-14T09:33:44.879Z,472
2016-10-14T09:34:58.544Z,476
2016-10-14T09:36:12.397Z,476
2016-10-14T09:37:25.804Z,472
2016-10-14T09:38:39.654Z,440
2016-10-14T09:39:53.339Z,392
2016-10-14T09:41:06.421Z,384
2016-10-14T09:42:20.057Z,408
2016-10-14T09:43:33.672Z,444
2016-10-14T09:44:47.298Z,448
2016-10-14T09:46:00.936Z,396
2016-10-14T09:47:14.570Z,320
2016-10-14T09:48:28.251Z,264
2016-10-14T09:49:41.803Z,252
2016-10-14T09:50:55.104Z,284
2016-10-14T09:52:08.189Z,340
2016-10-14T09:53:21.797Z,388
2016-10-14T09:54:35.357Z,440
2016-10-14T09:55:48.967Z,496
2016-10-14T09:57:02.018Z,536
2016-10-14T09:58:15.590Z,548
2016-10-14T09:59:29.180Z,544
2016-10-14T10:00:42.322Z,512
2016-10-14T10:01:56.099Z,456
2016-10-14T10:03:09.636Z,396
2016-10-14T10:04:23.201Z,356
2016-10-14T10:05:36.567Z,344
2016-10-14T10:06:50.194Z,344
2016-10-14T10:08:03.827Z,356
2016-10-14T10:09:17.522Z,360
2016-10-14T10:10:31.174Z,360
2016-10-14T10:11:44.772Z,372
2016-10-14T10:12:58.357Z,396
2016-10-14T10:14:11.994Z,436
2016-10-14T10:15:25.639Z,472
2016-10-14T10:16:39.310Z,500
2016-10-14T10:17:52.888Z,504
2016-10-14T10:19:06.492Z,508
2016-10-14T10:20:19.563Z,512
2016-10-14T10:21:32.668Z,524
2016-10-14T10:22:46.246Z,552
2016-10-14T10:23:59.604Z,592
2016-10-14T10:25:12.669Z,632
2016-10-14T10:26:26.007Z,660
2016-10-14T10:27:39.677Z,676
2016-10-14T10:28:52.778Z,696
2016-10-14T10:30:06.413Z,724
2016-10-14T10:31:19.509Z,768
2016-10-14T10:32:32.573Z,808
2016-10-14T10:33:46.247Z,848
2016-10-14T10:34:59.977Z,896
2016-10-14T10:36:13.649Z,948
2016-10-14T10:37:27.340Z,992
2016-10-14T10:38:40.528Z,1044
2016-10-14T10:39:54.197Z,1084
2016-10-14T10:41:07.948Z,1112
2016-10-14T10:42:21.741Z,1152
2016-10-14T10:43:35.308Z,1188
2016-10-14T10:44:48.958Z,1208
2016-10-14T10:46:02.637Z,1212
2016-10-14T10:47:16.260Z,1212
2016-10-14T10:48:29.601Z,1192
2016-10-14T10:49:42.700Z,1168
2016-10-14T10:50:56.415Z,1164
2016-10-14T10:52:10.128Z,1188
2016-10-14T10:53:23.750Z,1240
2016-10-14T10:54:37.463Z,1300
2016-10-14T10:55:50.539Z,1324
2016-10-14T10:57:04.231Z,1348
2016-10-14T10:58:17.300Z,1356
2016-10-14T10:59:30.932Z,1324
2016-10-14T11:00:44.650Z,1504
2016-10-14T11:01:58.495Z,1496
2016-10-14T11:03:12.112Z,1496
2016-10-14T11:04:25.879Z,1500
2016-10-14T11:05:39.571Z,1312
2016-10-14T11:06:53.209Z,1584
2016-10-14T11:08:06.845Z,1484
2016-10-14T11:09:20.459Z,1612
2016-10-14T11:10:34.157Z,1752
2016-10-14T11:11:47.776Z,1488
2016-10-14T11:13:01.389Z,1372
2016-10-14T11:14:15.075Z,1144
2016-10-14T11:15:28.243Z,1216
2016-10-14T11:16:41.910Z,1564
2016-10-14T11:17:55.324Z,1656
2016-10-14T11:19:08.974Z,1580
2016-10-14T11:20:22.587Z,1572
2016-10-14T11:21:36.209Z,1240
2016-10-14T11:22:49.252Z,1140
2016-10-14T11:24:02.932Z,1312
2016-10-14T11:25:16.608Z,1448
2016-10-14T11:26:30.367Z,1452
2016-10-14T11:27:44.003Z,1936
2016-10-14T11:28:57.693Z,1800
2016-10-14T11:30:10.849Z,2148
2016-10-14T11:31:24.489Z,2092
2016-10-14T11:32:38.075Z,1724
2016-10-14T11:33:51.807Z,1472
2016-10-14T11:35:05.449Z,1908
2016-10-14T11:36:19.075Z,1344
2016-10-14T11:37:31.657Z,2148
2016-10-14T11:38:45.469Z,2168
2016-10-14T11:39:59.139Z,2204
2016-10-14T11:41:12.756Z,2200
2016-10-14T11:42:26.797Z,2200
2016-10-14T11:43:40.471Z,2184
2016-10-14T11:44:54.177Z,2108
2016-10-14T11:46:07.778Z,2304
2016-10-14T11:47:21.619Z,2432
2016-10-14T11:48:35.226Z,2584
2016-10-14T11:49:48.789Z,2684
2016-10-14T11:51:02.435Z,2688
2016-10-14T11:52:16.059Z,3268
2016-10-14T11:53:29.663Z,2236
2016-10-14T11:54:43.295Z,2840
2016-10-14T11:55:56.924Z,2892
2016-10-14T11:57:10.528Z,2932
2016-10-14T11:58:24.219Z,3024
2016-10-14T11:59:37.859Z,3080
2016-10-14T12:00:51.855Z,3164
2016-10-14T12:02:05.521Z,3264
2016-10-14T12:03:18.661Z,3256
2016-10-14T12:04:31.955Z,3252
2016-10-14T12:05:45.558Z,3152
2016-10-14T12:06:59.157Z,3196
2016-10-14T12:08:12.423Z,3408
2016-10-14T12:09:26.085Z,3476
2016-10-14T12:10:39.709Z,3572
2016-10-14T12:11:53.489Z,3784
2016-10-14T12:13:07.039Z,3932
2016-10-14T12:14:20.705Z,4088
2016-10-14T12:15:34.299Z,3876
2016-10-14T12:16:47.406Z,3624
2016-10-14T12:18:00.534Z,3908
2016-10-14T12:19:14.172Z,2372
2016-10-14T12:20:27.761Z,2256
2016-10-14T12:21:41.404Z,3092
2016-10-14T12:22:54.972Z,3636
2016-10-14T12:24:08.089Z,3868
2016-10-14T12:25:21.765Z,4108
2016-10-14T12:26:35.415Z,4424
2016-10-14T12:27:48.623Z,4596
2016-10-14T12:29:01.719Z,4712
2016-10-14T12:30:15.547Z,5104
2016-10-14T12:31:29.346Z,3772
2016-10-14T12:32:43.045Z,2572
2016-10-14T12:33:56.712Z,4868
2016-10-14T12:35:10.339Z,4900
2016-10-14T12:36:23.960Z,5068
2016-10-14T12:37:37.601Z,4420
2016-10-14T12:38:51.244Z,3556
2016-10-14T12:40:04.871Z,3296
2016-10-14T12:41:18.664Z,3764
2016-10-14T12:42:31.745Z,4084
2016-10-14T12:43:45.521Z,4928
2016-10-14T12:44:59.184Z,5680
2016-10-14T12:46:12.558Z,4844
2016-10-14T12:47:26.145Z,5512
2016-10-14T12:48:39.707Z,5568
2016-10-14T12:49:52.912Z,5884
2016-10-14T12:51:06.525Z,5676
2016-10-14T12:52:20.102Z,5912
2016-10-14T12:53:32.688Z,5432
2016-10-14T12:54:46.330Z,5088
2016-10-14T12:55:59.708Z,5684
2016-10-14T12:57:12.790Z,5856
2016-10-14T12:58:26.371Z,5992
2016-10-14T12:59:39.941Z,6004
2016-10-14T13:00:53.603Z,6308
2016-10-14T13:02:07.261Z,6504
2016-10-14T13:03:20.376Z,6140
2016-10-14T13:04:34.024Z,6028
2016-10-14T13:05:47.638Z,5216
2016-10-14T13:07:00.782Z,5120
2016-10-14T13:08:14.354Z,6864
2016-10-14T13:09:27.914Z,6880
2016-10-14T13:10:41.485Z,7564
2016-10-14T13:11:55.135Z,7244
2016-10-14T13:13:08.261Z,6636
2016-10-14T13:14:21.328Z,3140
2016-10-14T13:15:33.933Z,5824
2016-10-14T13:16:46.485Z,2736
2016-10-14T13:18:00.211Z,3024
2016-10-14T13:19:13.827Z,3420
2016-10-14T13:20:27.426Z,4356
2016-10-14T13:21:41.365Z,6056
2016-10-14T13:22:54.971Z,2816
2016-10-14T13:24:08.607Z,2988
2016-10-14T13:25:21.711Z,2512
2016-10-14T13:26:34.877Z,3380
2016-10-14T13:27:48.014Z,3772
2016-10-14T13:29:01.644Z,2316
2016-10-14T13:30:14.727Z,2816
2016-10-14T13:31:27.908Z,3196
2016-10-14T13:32:41.497Z,3088
2016-10-14T13:33:54.537Z,1860
2016-10-14T13:35:07.725Z,2264
2016-10-14T13:36:21.342Z,4028
2016-10-14T13:37:35.013Z,7348
2016-10-14T13:38:48.711Z,6460
2016-10-14T13:40:01.820Z,3008
2016-10-14T13:41:14.419Z,5048
2016-10-14T13:42:28.079Z,3148
2016-10-14T13:43:41.204Z,5140
2016-10-14T13:44:54.780Z,6852
2016-10-14T13:46:07.810Z,3948
2016-10-14T13:47:20.957Z,2484
2016-10-14T13:48:34.696Z,2832
2016-10-14T13:49:47.806Z,4256
2016-10-14T13:51:00.400Z,3608
2016-10-14T13:52:13.490Z,4512
2016-10-14T13:53:27.119Z,6736
2016-10-14T13:54:40.214Z,4176
2016-10-14T13:55:53.834Z,4432
2016-10-14T13:57:07.476Z,10416
2016-10-14T13:58:21.191Z,7860
2016-10-14T13:59:34.280Z,4544
2016-10-14T14:00:47.952Z,10872
2016-10-14T14:02:00.535Z,5772
2016-10-14T14:03:14.157Z,3256
2016-10-14T14:04:27.784Z,3684
2016-10-14T14:05:40.888Z,3024
2016-10-14T14:06:54.532Z,3812
2016-10-14T14:08:08.190Z,6364
2016-10-14T14:09:21.842Z,2776
2016-10-14T14:10:35.049Z,2528
2016-10-14T14:11:48.691Z,1564
2016-10-14T14:13:02.377Z,1896
2016-10-14T14:14:16.017Z,2476
2016-10-14T14:15:29.123Z,3696
2016-10-14T14:16:42.754Z,3460
2016-10-14T14:17:56.315Z,4140
2016-10-14T14:19:09.354Z,4132
2016-10-14T14:20:23.096Z,8748
2016-10-14T14:21:36.189Z,7124
2016-10-14T14:22:49.768Z,7676
2016-10-14T14:24:03.427Z,10604
2016-10-14T14:25:16.012Z,5960
2016-10-14T14:26:29.380Z,4832
2016-10-14T14:27:43.025Z,4888
2016-10-14T14:28:56.126Z,5236
2016-10-14T14:30:09.754Z,2508
2016-10-14T14:31:23.384Z,2064
2016-10-14T14:32:37.446Z,1980
2016-10-14T14:33:51.086Z,2360
2016-10-14T14:35:04.748Z,2928
2016-10-14T14:36:18.693Z,7548
2016-10-14T14:37:31.777Z,7728
2016-10-14T14:38:45.569Z,5488
2016-10-14T14:39:59.333Z,10328
2016-10-14T14:41:12.972Z,9676
2016-10-14T14:42:26.668Z,2756
2016-10-14T14:43:40.303Z,2792
2016-10-14T14:44:53.395Z,2388
2016-10-14T14:46:07.016Z,2232
2016-10-14T14:47:20.940Z,2612
2016-10-14T14:48:34.582Z,3476
2016-10-14T14:49:47.186Z,4192
2016-10-14T14:51:00.866Z,2040
2016-10-14T14:52:14.444Z,1752
2016-10-14T14:53:27.507Z,1540
2016-10-14T14:54:41.213Z,1548
2016-10-14T14:55:54.333Z,1680
2016-10-14T14:57:06.848Z,1908
2016-10-14T14:58:20.434Z,2080
2016-10-14T14:59:33.593Z,2064
2016-10-14T15:00:46.672Z,2000
2016-10-14T15:02:00.381Z,1980
2016-10-14T15:03:12.914Z,2104
2016-10-14T15:04:26.077Z,2336
2016-10-14T15:05:39.773Z,2556
2016-10-14T15:06:53.373Z,3896
2016-10-14T15:08:07.085Z,2552
2016-10-14T15:09:20.723Z,2992
2016-10-14T15:10:34.359Z,3856
2016-10-14T15:11:47.947Z,2648
2016-10-14T15:13:00.691Z,3088
2016-10-14T15:14:13.800Z,2516
2016-10-14T15:15:27.458Z,3040
2016-10-14T15:16:41.111Z,3024
2016-10-14T15:17:54.867Z,3040
2016-10-14T15:19:08.583Z,3240
2016-10-14T15:20:22.264Z,3568
2016-10-14T15:21:35.881Z,4300
2016-10-14T15:22:49.520Z,9688
2016-10-14T15:24:03.104Z,10956
2016-10-14T15:25:16.676Z,10220
2016-10-14T15:26:29.769Z,8244
2016-10-14T15:27:43.441Z,6640
2016-10-14T15:28:57.098Z,6164
2016-10-14T15:30:10.299Z,5192
2016-10-14T15:31:23.966Z,4476
2016-10-14T15:32:37.562Z,3864
2016-10-14T15:33:51.137Z,4180
2016-10-14T15:35:03.713Z,4436
2016-10-14T15:36:17.368Z,4416
2016-10-14T15:37:30.655Z,5704
2016-10-14T15:38:44.315Z,5884
2016-10-14T15:39:58.093Z,5840
2016-10-14T15:41:11.795Z,5312
2016-10-14T15:42:25.489Z,4592
2016-10-14T15:43:39.117Z,4860
2016-10-14T15:44:52.963Z,6508
2016-10-14T15:46:06.577Z,8068
2016-10-14T15:47:19.488Z,7552
2016-10-14T15:48:32.479Z,6468
2016-10-14T15:49:45.579Z,7956
2016-10-14T15:50:58.625Z,6836
2016-10-14T15:52:11.157Z,6736
2016-10-14T15:53:24.993Z,5776
2016-10-14T15:54:38.104Z,5684
2016-10-14T15:55:51.190Z,6076
2016-10-14T15:57:04.223Z,6328
2016-10-14T15:58:17.524Z,5684
2016-10-14T15:59:31.181Z,5260
2016-10-14T16:00:44.811Z,3656
2016-10-14T16:01:57.731Z,3356
2016-10-14T16:03:11.401Z,3500
2016-10-14T16:04:25.138Z,3696
2016-10-14T16:05:38.968Z,4024
2016-10-14T16:06:52.636Z,4100
2016-10-14T16:08:06.303Z,5356
2016-10-14T16:09:19.917Z,3944
2016-10-14T16:10:33.619Z,4760
2016-10-14T16:11:47.288Z,5484
2016-10-14T16:13:00.958Z,6068
2016-10-14T16:14:14.103Z,3888
2016-10-14T16:15:27.730Z,3500
2016-10-14T16:16:41.353Z,3580
2016-10-14T16:17:54.424Z,3236
2016-10-14T16:19:07.543Z,2912
2016-10-14T16:20:20.712Z,2800
2016-10-14T16:21:34.365Z,2840
2016-10-14T16:22:47.381Z,2944
2016-10-14T16:24:01.067Z,2664
2016-10-14T16:25:14.693Z,2528
2016-10-14T16:26:28.331Z,2548
2016-10-14T16:27:41.454Z,2380
2016-10-14T16:28:55.062Z,2256
2016-10-14T16:30:08.660Z,2104
2016-10-14T16:31:22.351Z,1972
2016-10-14T16:32:49.885Z,1784
2016-10-14T16:34:03.603Z,1612
2016-10-14T16:35:16.681Z,1440
2016-10-14T16:36:29.246Z,1264
2016-10-14T16:37:42.837Z,1092
2016-10-14T16:38:56.516Z,972
2016-10-14T16:40:10.172Z,892
2016-10-14T16:41:23.834Z,828
2016-10-14T16:42:37.474Z,820
2016-10-14T16:43:50.522Z,860
2016-10-14T16:45:03.679Z,888
2016-10-14T16:46:17.260Z,888
2016-10-14T16:47:30.889Z,816
2016-10-14T16:48:43.958Z,732
2016-10-14T16:49:56.642Z,660
2016-10-14T16:51:10.250Z,640
2016-10-14T16:52:23.891Z,616
2016-10-14T16:53:37.001Z,588
2016-10-14T16:54:50.095Z,568
2016-10-14T16:56:03.724Z,560
2016-10-14T16:57:16.848Z,576
2016-10-14T16:58:29.396Z,596
2016-10-14T16:59:42.662Z,604
2016-10-14T17:00:56.361Z,592
2016-10-14T17:02:09.996Z,576
2016-10-14T17:03:23.155Z,556
2016-10-14T17:04:36.207Z,544
2016-10-14T17:05:49.877Z,536
2016-10-14T17:07:03.010Z,540
2016-10-14T17:08:16.631Z,536
2016-10-14T17:09:30.262Z,516
2016-10-14T17:10:43.402Z,496
2016-10-14T17:11:57.010Z,468
2016-10-14T17:13:10.566Z,452
2016-10-14T17:14:23.657Z,440
2016-10-14T17:15:37.266Z,420